MSC Poh Lin — H8FC — position and weather

sailwx.info

Track history (hours):
 
Tides and Currents Weather Stations Pressure Air Temp Water Temp Dewpoint Dewpoint Depression Visibility Wind Speed Wind Dir Waves Ship Positions

MSC Poh Lin

Last reported at 2016-Dec-09 05:33 UTC. Time now 2016-Dec-09 05:48 UTC.
Position N 39°26' W 000°19'.

Length 294 m; draft 10 m.

Type: Ship (hazmat cat A). MMSI: 357405000.

Date/timePositionNaut miles runAvg speedWind from/ knotsBaromVisibWave heightAir tempDewpointWater temp
2016-Dec-09 05:33N 39°26' W 000°19'5 4.7
2016-Dec-09 04:33N 39°25' W 000°13'6817.0
2016-Dec-09 00:32N 39°55' E 001°06'1919.2
2016-Dec-08 23:33N 40°10' E 001°22'1918.8
2016-Dec-08 22:33N 40°23' E 001°40'1918.6
2016-Dec-08 21:33N 40°36' E 001°58'1818.0
2016-Dec-08 20:33N 40°49' E 002°14'1818.3
2016-Dec-08 19:33N 41°02' E 002°30'1918.4
2016-Dec-08 18:32N 41°16' E 002°48'2219.1
2016-Dec-08 17:23N 41°32' E 003°08'1619.3
2016-Dec-08 16:33N 41°43' E 003°23'1919.1
2016-Dec-08 15:33N 41°58' E 003°39'1919.0
2016-Dec-08 14:33N 42°13' E 003°56'3918.9
2016-Dec-08 12:31N 42°42' E 004°29'1818.6
2016-Dec-08 11:34N 42°57' E 004°43'1918.5
2016-Dec-08 10:33N 43°11' E 004°60'1413.8
2016-Dec-08 09:33N 43°24' E 004°54'3 3.4
2016-Dec-08 08:33N 43°25' E 004°50'0 0.0
2016-Dec-08 07:33N 43°25' E 004°50'0 0.0
2016-Dec-08 06:33N 43°25' E 004°50'0 0.0
2016-Dec-08 05:33N 43°25' E 004°50'0 0.0
2016-Dec-08 04:33N 43°25' E 004°50'5 5.1
2016-Dec-08 03:33N 43°23' E 004°57'7 6.8
2016-Dec-08 02:33N 43°17' E 005°00'7 7.1
2016-Dec-08 01:33N 43°11' E 005°05'10116.4
2016-Dec-07 19:25N 43°10' E 007°23'12115.1
2016-Dec-07 11:25N 44°06' E 009°51'0 0.0
2016-Dec-07 10:34N 44°06' E 009°51'0 0.0
2016-Dec-07 09:34N 44°06' E 009°51'0 0.0
2016-Dec-07 08:34N 44°06' E 009°51'0 0.0
2016-Dec-07 07:34N 44°06' E 009°51'0 0.0
2016-Dec-07 06:34N 44°06' E 009°51'0 0.0
2016-Dec-07 05:34N 44°06' E 009°51'0 0.0
2016-Dec-07 04:34N 44°06' E 009°51'0 0.0
2016-Dec-07 03:33N 44°06' E 009°51'0 0.0
2016-Dec-07 02:34N 44°06' E 009°51'0 0.0
2016-Dec-07 01:34N 44°06' E 009°51'0 0.0
2016-Dec-07 00:33N 44°06' E 009°51'0 0.0
2016-Dec-06 23:34N 44°06' E 009°51'0 0.0
2016-Dec-06 22:34N 44°06' E 009°51'0 0.0
2016-Dec-06 21:33N 44°06' E 009°51'0 0.0
2016-Dec-06 20:33N 44°06' E 009°51'0 0.0
2016-Dec-06 18:33N 44°06' E 009°51'0 0.0
2016-Dec-06 17:34N 44°06' E 009°51'0 0.0
2016-Dec-06 16:34N 44°06' E 009°51'4 4.3
2016-Dec-06 15:34N 44°03' E 009°53'1313.1
2016-Dec-06 14:33N 43°50' E 009°51'2020.2
2016-Dec-06 13:33N 43°30' E 009°43'1919.4
2016-Dec-06 12:33N 43°12' E 009°53'2020.0
2016-Dec-06 11:33N 42°53' E 010°00'1919.2
2016-Dec-06 10:33N 42°37' E 010°15'2120.5
2016-Dec-06 09:31N 42°23' E 010°37'308 8.5
2016-Dec-04 21:22N 38°48' E 015°27'1619.8
2016-Dec-04 20:32N 38°36' E 015°41'1313.5
2016-Dec-04 19:33N 38°27' E 015°54'0 0.2
2016-Dec-04 18:26N 38°28' E 015°54'0 0.0
2016-Dec-04 17:32N 38°28' E 015°54'0 0.0
2016-Dec-04 16:32N 38°28' E 015°54'0 0.0
2016-Dec-04 15:23N 38°28' E 015°54'0 0.0
2016-Dec-04 14:29N 38°28' E 015°54'0 0.0
2016-Dec-04 13:31N 38°28' E 015°54'0 0.0
2016-Dec-04 12:31N 38°28' E 015°54'0 0.0
2016-Dec-04 11:31N 38°28' E 015°54'0 0.0
2016-Dec-04 10:31N 38°28' E 015°54'0 0.0
2016-Dec-04 09:04N 38°28' E 015°54'0 0.0
2016-Dec-04 08:25N 38°28' E 015°54'0 0.0
2016-Dec-04 07:31N 38°28' E 015°54'0 0.0
2016-Dec-04 06:31N 38°28' E 015°54'0 0.0
2016-Dec-04 05:31N 38°28' E 015°54'0 0.0
2016-Dec-04 04:31N 38°28' E 015°54'0 0.0
2016-Dec-04 03:31N 38°28' E 015°54'0 0.0
2016-Dec-04 02:28N 38°28' E 015°54'0 0.0
2016-Dec-04 01:28N 38°28' E 015°54'0 0.0
2016-Dec-04 00:31N 38°28' E 015°54'0 0.0
2016-Dec-03 23:28N 38°28' E 015°54'0 0.0
2016-Dec-03 22:22N 38°28' E 015°54'0 0.0
2016-Dec-03 21:19N 38°28' E 015°54'0 0.0
2016-Dec-03 20:31N 38°28' E 015°54'0 0.0
2016-Dec-03 19:31N 38°28' E 015°54'0 0.0
2016-Dec-03 18:33N 38°28' E 015°54'3 2.8
2016-Dec-03 17:33N 38°27' E 015°51'2 1.6
2016-Dec-03 16:28N 38°28' E 015°49'1 1.5
2016-Dec-03 15:33N 38°27' E 015°48'1 1.2
2016-Dec-03 14:34N 38°26' E 015°47'1 1.1
2016-Dec-03 13:34N 38°26' E 015°45'1 0.8
2016-Dec-03 12:33N 38°26' E 015°45'3 3.5
2016-Dec-03 11:33N 38°27' E 015°40'7 7.5
2016-Dec-03 10:34N 38°26' E 015°31'1211.5
2016-Dec-03 09:33N 38°24' E 015°16'1111.5
2016-Dec-03 08:34N 38°20' E 015°02'1211.7
2016-Dec-03 07:33N 38°20' E 014°47'1211.6
2016-Dec-03 06:32N 38°22' E 014°32'2511.1
2016-Dec-03 04:16N 38°24' E 014°00'811.5
2016-Dec-03 03:33N 38°24' E 013°50'1111.4
2016-Dec-03 02:33N 38°25' E 013°35'1111.5
2016-Dec-03 01:33N 38°26' E 013°21'1111.5
2016-Dec-03 00:33N 38°25' E 013°06'1111.3
2016-Dec-02 23:33N 38°23' E 012°52'87718.7
2016-Dec-01 00:33N 35°60' W 005°14'20915.6
2016-Nov-30 11:08N 37°23' W 009°13'1119.3
2016-Nov-30 10:33N 37°34' W 009°08'2020.0
2016-Nov-30 09:33N 37°50' W 008°53'6 6.0
2016-Nov-30 08:33N 37°56' W 008°51'0 0.0
2016-Nov-30 07:33N 37°56' W 008°51'0 0.0
2016-Nov-30 06:33N 37°56' W 008°51'0 0.0
2016-Nov-30 05:33N 37°56' W 008°51'0 0.0
2016-Nov-30 04:33N 37°56' W 008°51'0 0.0
2016-Nov-30 03:33N 37°56' W 008°51'0 0.0
2016-Nov-30 02:30N 37°56' W 008°51'0 0.0
2016-Nov-30 01:33N 37°56' W 008°51'0 0.0
2016-Nov-30 00:33N 37°56' W 008°51'0 0.0
2016-Nov-29 23:33N 37°56' W 008°51'0 0.0
2016-Nov-29 22:33N 37°56' W 008°51'0 0.0
2016-Nov-29 21:33N 37°56' W 008°51'0 0.0
2016-Nov-29 20:33N 37°56' W 008°51'0 0.0
2016-Nov-29 19:33N 37°56' W 008°51'3 2.8
2016-Nov-29 18:33N 37°53' W 008°50'8 8.3
2016-Nov-29 17:33N 37°46' W 008°56'1 1.3
2016-Nov-29 16:33N 37°45' W 008°57'0 0.2
2016-Nov-29 15:32N 37°45' W 008°57'0 0.2
2016-Nov-29 14:33N 37°46' W 008°57'0 0.2
2016-Nov-29 13:33N 37°46' W 008°57'0 0.2
2016-Nov-29 12:33N 37°46' W 008°57'1 0.6
2016-Nov-29 11:33N 37°46' W 008°56'2 1.7
2016-Nov-29 10:33N 37°48' W 008°55'3 2.9
2016-Nov-29 09:33N 37°48' W 008°59'6 5.9
2016-Nov-29 08:33N 37°49' W 009°06'7 7.3
2016-Nov-29 07:33N 37°48' W 009°16'8 8.4
2016-Nov-29 06:33N 37°47' W 009°26'  
Track history (hours):
 
Tides and Currents Weather Stations Pressure Air Temp Water Temp Dewpoint Dewpoint Depression Visibility Wind Speed Wind Dir Waves Ship Positions

MSC Poh Lin

Last reported at 2016-Dec-09 05:33 UTC. Time now 2016-Dec-09 05:48 UTC.
Position N 39°26' W 000°19'.

Length 294 m; draft 10 m.

Type: Ship (hazmat cat A). MMSI: 357405000.

Date/timePositionNaut miles runAvg speedWind from/ knotsBaromVisibWave heightAir tempDewpointWater temp
2016-Dec-09 05:33N 39°26' W 000°19'5 4.7
2016-Dec-09 04:33N 39°25' W 000°13'6817.0
2016-Dec-09 00:32N 39°55' E 001°06'1919.2
2016-Dec-08 23:33N 40°10' E 001°22'1918.8
2016-Dec-08 22:33N 40°23' E 001°40'1918.6
2016-Dec-08 21:33N 40°36' E 001°58'1818.0
2016-Dec-08 20:33N 40°49' E 002°14'1818.3
2016-Dec-08 19:33N 41°02' E 002°30'1918.4
2016-Dec-08 18:32N 41°16' E 002°48'2219.1
2016-Dec-08 17:23N 41°32' E 003°08'1619.3
2016-Dec-08 16:33N 41°43' E 003°23'1919.1
2016-Dec-08 15:33N 41°58' E 003°39'1919.0
2016-Dec-08 14:33N 42°13' E 003°56'3918.9
2016-Dec-08 12:31N 42°42' E 004°29'1818.6
2016-Dec-08 11:34N 42°57' E 004°43'1918.5
2016-Dec-08 10:33N 43°11' E 004°60'1413.8
2016-Dec-08 09:33N 43°24' E 004°54'3 3.4
2016-Dec-08 08:33N 43°25' E 004°50'0 0.0
2016-Dec-08 07:33N 43°25' E 004°50'0 0.0
2016-Dec-08 06:33N 43°25' E 004°50'0 0.0
2016-Dec-08 05:33N 43°25' E 004°50'0 0.0
2016-Dec-08 04:33N 43°25' E 004°50'5 5.1
2016-Dec-08 03:33N 43°23' E 004°57'7 6.8
2016-Dec-08 02:33N 43°17' E 005°00'7 7.1
2016-Dec-08 01:33N 43°11' E 005°05'10116.4
2016-Dec-07 19:25N 43°10' E 007°23'12115.1
2016-Dec-07 11:25N 44°06' E 009°51'0 0.0
2016-Dec-07 10:34N 44°06' E 009°51'0 0.0
2016-Dec-07 09:34N 44°06' E 009°51'0 0.0
2016-Dec-07 08:34N 44°06' E 009°51'0 0.0
2016-Dec-07 07:34N 44°06' E 009°51'0 0.0
2016-Dec-07 06:34N 44°06' E 009°51'0 0.0
2016-Dec-07 05:34N 44°06' E 009°51'0 0.0
2016-Dec-07 04:34N 44°06' E 009°51'0 0.0
2016-Dec-07 03:33N 44°06' E 009°51'0 0.0
2016-Dec-07 02:34N 44°06' E 009°51'0 0.0
2016-Dec-07 01:34N 44°06' E 009°51'0 0.0
2016-Dec-07 00:33N 44°06' E 009°51'0 0.0
2016-Dec-06 23:34N 44°06' E 009°51'0 0.0
2016-Dec-06 22:34N 44°06' E 009°51'0 0.0
2016-Dec-06 21:33N 44°06' E 009°51'0 0.0
2016-Dec-06 20:33N 44°06' E 009°51'0 0.0
2016-Dec-06 18:33N 44°06' E 009°51'0 0.0
2016-Dec-06 17:34N 44°06' E 009°51'0 0.0
2016-Dec-06 16:34N 44°06' E 009°51'4 4.3
2016-Dec-06 15:34N 44°03' E 009°53'1313.1
2016-Dec-06 14:33N 43°50' E 009°51'2020.2
2016-Dec-06 13:33N 43°30' E 009°43'1919.4
2016-Dec-06 12:33N 43°12' E 009°53'2020.0
2016-Dec-06 11:33N 42°53' E 010°00'1919.2
2016-Dec-06 10:33N 42°37' E 010°15'2120.5
2016-Dec-06 09:31N 42°23' E 010°37'308 8.5
2016-Dec-04 21:22N 38°48' E 015°27'1619.8
2016-Dec-04 20:32N 38°36' E 015°41'1313.5
2016-Dec-04 19:33N 38°27' E 015°54'0 0.2
2016-Dec-04 18:26N 38°28' E 015°54'0 0.0
2016-Dec-04 17:32N 38°28' E 015°54'0 0.0
2016-Dec-04 16:32N 38°28' E 015°54'0 0.0
2016-Dec-04 15:23N 38°28' E 015°54'0 0.0
2016-Dec-04 14:29N 38°28' E 015°54'0 0.0
2016-Dec-04 13:31N 38°28' E 015°54'0 0.0
2016-Dec-04 12:31N 38°28' E 015°54'0 0.0
2016-Dec-04 11:31N 38°28' E 015°54'0 0.0
2016-Dec-04 10:31N 38°28' E 015°54'0 0.0
2016-Dec-04 09:04N 38°28' E 015°54'0 0.0
2016-Dec-04 08:25N 38°28' E 015°54'0 0.0
2016-Dec-04 07:31N 38°28' E 015°54'0 0.0
2016-Dec-04 06:31N 38°28' E 015°54'0 0.0
2016-Dec-04 05:31N 38°28' E 015°54'0 0.0
2016-Dec-04 04:31N 38°28' E 015°54'0 0.0
2016-Dec-04 03:31N 38°28' E 015°54'0 0.0
2016-Dec-04 02:28N 38°28' E 015°54'0 0.0
2016-Dec-04 01:28N 38°28' E 015°54'0 0.0
2016-Dec-04 00:31N 38°28' E 015°54'0 0.0
2016-Dec-03 23:28N 38°28' E 015°54'0 0.0
2016-Dec-03 22:22N 38°28' E 015°54'0 0.0
2016-Dec-03 21:19N 38°28' E 015°54'0 0.0
2016-Dec-03 20:31N 38°28' E 015°54'0 0.0
2016-Dec-03 19:31N 38°28' E 015°54'0 0.0
2016-Dec-03 18:33N 38°28' E 015°54'3 2.8
2016-Dec-03 17:33N 38°27' E 015°51'2 1.6
2016-Dec-03 16:28N 38°28' E 015°49'1 1.5
2016-Dec-03 15:33N 38°27' E 015°48'1 1.2
2016-Dec-03 14:34N 38°26' E 015°47'1 1.1
2016-Dec-03 13:34N 38°26' E 015°45'1 0.8
2016-Dec-03 12:33N 38°26' E 015°45'3 3.5
2016-Dec-03 11:33N 38°27' E 015°40'7 7.5
2016-Dec-03 10:34N 38°26' E 015°31'1211.5
2016-Dec-03 09:33N 38°24' E 015°16'1111.5
2016-Dec-03 08:34N 38°20' E 015°02'1211.7
2016-Dec-03 07:33N 38°20' E 014°47'1211.6
2016-Dec-03 06:32N 38°22' E 014°32'2511.1
2016-Dec-03 04:16N 38°24' E 014°00'811.5
2016-Dec-03 03:33N 38°24' E 013°50'1111.4
2016-Dec-03 02:33N 38°25' E 013°35'1111.5
2016-Dec-03 01:33N 38°26' E 013°21'1111.5
2016-Dec-03 00:33N 38°25' E 013°06'1111.3
2016-Dec-02 23:33N 38°23' E 012°52'87718.7
2016-Dec-01 00:33N 35°60' W 005°14'20915.6
2016-Nov-30 11:08N 37°23' W 009°13'1119.3
2016-Nov-30 10:33N 37°34' W 009°08'2020.0
2016-Nov-30 09:33N 37°50' W 008°53'6 6.0
2016-Nov-30 08:33N 37°56' W 008°51'0 0.0
2016-Nov-30 07:33N 37°56' W 008°51'0 0.0
2016-Nov-30 06:33N 37°56' W 008°51'0 0.0
2016-Nov-30 05:33N 37°56' W 008°51'0 0.0
2016-Nov-30 04:33N 37°56' W 008°51'0 0.0
2016-Nov-30 03:33N 37°56' W 008°51'0 0.0
2016-Nov-30 02:30N 37°56' W 008°51'0 0.0
2016-Nov-30 01:33N 37°56' W 008°51'0 0.0
2016-Nov-30 00:33N 37°56' W 008°51'0 0.0
2016-Nov-29 23:33N 37°56' W 008°51'0 0.0
2016-Nov-29 22:33N 37°56' W 008°51'0 0.0
2016-Nov-29 21:33N 37°56' W 008°51'0 0.0
2016-Nov-29 20:33N 37°56' W 008°51'0 0.0
2016-Nov-29 19:33N 37°56' W 008°51'3 2.8
2016-Nov-29 18:33N 37°53' W 008°50'8 8.3
2016-Nov-29 17:33N 37°46' W 008°56'1 1.3
2016-Nov-29 16:33N 37°45' W 008°57'0 0.2
2016-Nov-29 15:32N 37°45' W 008°57'0 0.2
2016-Nov-29 14:33N 37°46' W 008°57'0 0.2
2016-Nov-29 13:33N 37°46' W 008°57'0 0.2
2016-Nov-29 12:33N 37°46' W 008°57'1 0.6
2016-Nov-29 11:33N 37°46' W 008°56'2 1.7
2016-Nov-29 10:33N 37°48' W 008°55'3 2.9
2016-Nov-29 09:33N 37°48' W 008°59'6 5.9
2016-Nov-29 08:33N 37°49' W 009°06'7 7.3
2016-Nov-29 07:33N 37°48' W 009°16'8 8.4
2016-Nov-29 06:33N 37°47' W 009°26'  

Dump ship's entire track history